ESMK/KID METAR and TAF weather

Enter ICAO airport designator
Station Type Date Time Source
ESMK METAR 2019/09/21 04:20 UTC NOAA

ESMK 210420Z AUTO 29008KT 9999 // OVC009/// 12/11 Q1019


Station Type Date Time Source
ESMK Decoded METAR 2019/09/21 04:20 UTC NOAA

Kristianstad / Everod, Sweden (ESMK) 55-55N 014-05E
Sep 21, 2019 - 12:20 AM EDT / 2019.09.21 0420 UTC
Wind: from the WNW (290 degrees) at 9 MPH (8 KT):0
Visibility: greater than 7 mile(s):0
Sky conditions: overcast
Temperature: 53 F (12 C)
Dew Point: 51 F (11 C)
Relative Humidity: 93%
Pressure (altimeter): 30.09 in. Hg (1019 hPa)
ob: ESMK 210420Z AUTO 29008KT 9999 // OVC009/// 12/11 Q1019
cycle: 4

Station Type Date Time Source
ESMK TAF 2015/03/18 12:33 UTC NOAA

TAF ESMK 181130Z 1812/1824 13012KT CAVOK

Example: see airport list